createdAt,value
2023-01-08T00:00:50.327Z,55.70
2023-01-08T00:03:18.259Z,59.85
2023-01-08T00:05:46.289Z,64.15
2023-01-08T00:08:14.102Z,63.38
2023-01-08T00:11:00.204Z,69.95
2023-01-08T00:14:05.449Z,66.22
2023-01-08T00:16:52.440Z,70.55
2023-01-08T00:19:20.273Z,71.32
2023-01-08T00:22:06.383Z,73.60
2023-01-08T00:24:34.215Z,74.80
2023-01-08T00:27:02.071Z,70.55
2023-01-08T00:29:30.043Z,69.97
2023-01-08T00:31:57.866Z,67.55
2023-01-08T00:34:25.711Z,71.55
2023-01-08T00:36:53.675Z,68.28
2023-01-08T00:39:21.639Z,74.22
2023-01-08T00:42:07.872Z,67.30
2023-01-08T00:44:35.777Z,73.32
2023-01-08T00:47:03.513Z,73.78
2023-01-08T00:49:31.277Z,82.05
2023-01-08T00:51:59.184Z,80.47
2023-01-08T00:54:26.975Z,81.85
2023-01-08T00:56:57.697Z,95.85
2023-01-08T00:59:25.479Z,89.97
2023-01-08T01:01:54.947Z,97.32
2023-01-08T01:04:22.854Z,84.22
2023-01-08T01:06:50.902Z,75.95
2023-01-08T01:09:18.641Z,71.78
2023-01-08T01:11:46.448Z,75.50
2023-01-08T01:14:17.228Z,71.32
2023-01-08T01:16:45.325Z,70.07
2023-01-08T01:19:31.822Z,74.85
2023-01-08T01:21:59.952Z,71.93
2023-01-08T01:24:46.305Z,72.57
2023-01-08T01:27:14.155Z,71.30
2023-01-08T01:30:00.338Z,70.97
2023-01-08T01:32:28.167Z,75.47
2023-01-08T01:34:56.103Z,75.95
2023-01-08T01:37:24.042Z,76.47
2023-01-08T01:40:11.300Z,80.10
2023-01-08T01:42:41.807Z,80.57
2023-01-08T01:45:22.956Z,86.68
2023-01-08T01:48:02.875Z,86.43
2023-01-08T01:50:33.359Z,91.55
2023-01-08T01:53:04.196Z,91.53
2023-01-08T01:55:32.289Z,95.55
2023-01-08T01:58:17.392Z,95.75
2023-01-08T02:00:45.411Z,95.30
2023-01-08T02:03:13.928Z,92.63
2023-01-08T02:05:47.637Z,92.97
2023-01-08T02:08:23.149Z,93.80
2023-01-08T02:11:32.877Z,99.70
2023-01-08T02:14:26.484Z,97.75
2023-01-08T02:17:06.924Z,95.13
2023-01-08T02:19:45.671Z,97.90
2023-01-08T02:22:47.182Z,93.05
2023-01-08T02:25:38.539Z,97.50
2023-01-08T02:28:09.758Z,111.93
2023-01-08T02:30:37.712Z,93.15
2023-01-08T02:33:05.773Z,92.35
2023-01-08T02:35:42.958Z,86.07
2023-01-08T02:38:12.518Z,88.88
2023-01-08T02:41:01.389Z,91.75
2023-01-08T02:43:55.688Z,93.82
2023-01-08T02:46:27.416Z,75.80
2023-01-08T02:48:57.558Z,85.82
2023-01-08T02:51:47.039Z,83.78
2023-01-08T02:54:17.641Z,83.88
2023-01-08T02:57:07.383Z,81.82
2023-01-08T02:59:35.511Z,72.50
2023-01-08T03:02:03.754Z,76.13
2023-01-08T03:04:50.538Z,69.43
2023-01-08T03:07:18.445Z,79.90
2023-01-08T03:09:46.439Z,78.78
2023-01-08T03:12:19.655Z,73.63
2023-01-08T03:15:06.192Z,69.80
2023-01-08T03:17:38.076Z,68.90
2023-01-08T03:20:09.628Z,69.87
2023-01-08T03:22:56.877Z,66.40
2023-01-08T03:25:44.125Z,64.25
2023-01-08T03:28:22.281Z,67.10
2023-01-08T03:30:50.229Z,65.57
2023-01-08T03:33:18.905Z,64.50
2023-01-08T03:35:51.253Z,63.40
2023-01-08T03:38:27.630Z,65.43
2023-01-08T03:41:21.674Z,67.85
2023-01-08T03:43:49.604Z,64.80
2023-01-08T03:46:24.854Z,64.60
2023-01-08T03:49:11.033Z,62.42
2023-01-08T03:51:43.044Z,62.83
2023-01-08T03:54:15.805Z,62.63
2023-01-08T03:59:15.331Z,59.30
2023-01-08T04:01:43.302Z,62.43
2023-01-08T04:04:11.655Z,61.92
2023-01-08T04:06:57.999Z,62.72
2023-01-08T04:09:26.051Z,56.92
2023-01-08T04:11:53.857Z,58.58
2023-01-08T04:14:21.732Z,62.10
2023-01-08T04:16:49.709Z,63.83
2023-01-08T04:19:36.425Z,67.07
2023-01-08T04:22:04.298Z,69.28
2023-01-08T04:25:09.463Z,70.15
2023-01-08T04:27:37.437Z,70.75
2023-01-08T04:30:05.666Z,74.10
2023-01-08T04:32:33.627Z,66.43
2023-01-08T04:35:01.691Z,65.25
2023-01-08T04:37:29.524Z,62.00
2023-01-08T04:39:57.331Z,66.53
2023-01-08T04:42:43.218Z,71.13
2023-01-08T04:45:11.244Z,70.78
2023-01-08T04:47:39.037Z,70.28
2023-01-08T04:50:07.255Z,74.78
2023-01-08T04:52:35.277Z,80.55
2023-01-08T04:55:03.147Z,80.85
2023-01-08T04:57:49.415Z,79.57
2023-01-08T05:00:17.580Z,87.85
2023-01-08T05:02:45.643Z,71.40
2023-01-08T05:05:13.659Z,66.97
2023-01-08T05:07:41.602Z,58.38
2023-01-08T05:10:09.923Z,60.53
2023-01-08T05:12:37.815Z,53.58
2023-01-08T05:15:06.120Z,65.85
2023-01-08T05:17:33.949Z,71.57
2023-01-08T05:20:01.724Z,49.15
2023-01-08T05:22:29.490Z,57.35
2023-01-08T05:24:57.333Z,43.95
2023-01-08T05:27:25.245Z,41.90
2023-01-08T05:29:53.010Z,41.97
2023-01-08T05:32:21.605Z,39.75
2023-01-08T05:34:49.695Z,40.50
2023-01-08T05:37:17.339Z,39.42
2023-01-08T05:39:45.268Z,37.67
2023-01-08T05:42:13.174Z,37.78
2023-01-08T05:44:41.146Z,36.08
2023-01-08T05:47:08.947Z,38.38
2023-01-08T05:49:36.724Z,37.72
2023-01-08T05:52:04.628Z,36.88
2023-01-08T05:54:32.436Z,35.80
2023-01-08T05:57:00.422Z,36.28
2023-01-08T05:59:28.303Z,34.50
2023-01-08T06:01:56.075Z,33.78
2023-01-08T06:04:24.364Z,32.17
2023-01-08T06:06:52.715Z,34.72
2023-01-08T06:09:20.594Z,34.15
2023-01-08T06:11:51.498Z,32.78
2023-01-08T06:14:19.463Z,34.33
2023-01-08T06:16:47.300Z,34.45
2023-01-08T06:19:15.300Z,35.03
2023-01-08T06:21:43.168Z,33.83
2023-01-08T06:24:11.176Z,35.58
2023-01-08T06:26:39.036Z,36.35
2023-01-08T06:29:06.803Z,35.95
2023-01-08T06:31:35.091Z,33.58
2023-01-08T06:34:03.023Z,35.92
2023-01-08T06:36:30.786Z,36.95
2023-01-08T06:38:58.883Z,34.22
2023-01-08T06:41:26.655Z,36.55
2023-01-08T06:43:56.262Z,35.00
2023-01-08T06:46:24.112Z,34.23
2023-01-08T06:48:51.945Z,37.38
2023-01-08T06:51:19.981Z,42.45
2023-01-08T06:53:50.890Z,43.65
2023-01-08T06:56:52.283Z,47.38
2023-01-08T06:59:20.954Z,43.28
2023-01-08T07:01:49.198Z,46.90
2023-01-08T07:04:18.062Z,46.22
2023-01-08T07:07:04.642Z,51.60
2023-01-08T07:09:34.094Z,58.13
2023-01-08T07:12:01.948Z,70.68
2023-01-08T07:14:29.800Z,74.03
2023-01-08T07:16:57.701Z,74.00
2023-01-08T07:19:25.473Z,64.57
2023-01-08T07:21:53.173Z,57.42
2023-01-08T07:24:21.040Z,57.13
2023-01-08T07:26:49.210Z,69.78
2023-01-08T07:29:17.135Z,77.93
2023-01-08T07:32:03.651Z,101.22
2023-01-08T07:34:31.603Z,96.65
2023-01-08T07:37:18.105Z,91.68
2023-01-08T07:39:47.015Z,97.93
2023-01-08T07:42:15.247Z,109.25
2023-01-08T07:44:43.298Z,119.00
2023-01-08T07:47:11.126Z,120.95
2023-01-08T07:49:39.210Z,113.68
2023-01-08T07:52:07.280Z,90.82
2023-01-08T07:54:35.387Z,42.53
2023-01-08T07:57:03.976Z,50.88
2023-01-08T07:59:32.562Z,42.00
2023-01-08T08:02:22.181Z,47.33
2023-01-08T08:04:50.301Z,52.55
2023-01-08T08:07:18.167Z,57.70
2023-01-08T08:09:45.963Z,68.00
2023-01-08T08:12:15.220Z,75.10
2023-01-08T08:14:43.369Z,71.93
2023-01-08T08:17:11.714Z,73.28
2023-01-08T08:19:39.678Z,74.70
2023-01-08T08:22:07.701Z,72.38
2023-01-08T08:24:35.489Z,72.22
2023-01-08T08:27:03.459Z,65.53
2023-01-08T08:29:31.309Z,67.15
2023-01-08T08:31:59.156Z,62.13
2023-01-08T08:34:27.047Z,54.22
2023-01-08T08:36:54.817Z,44.80
2023-01-08T08:39:22.750Z,37.47
2023-01-08T08:41:50.556Z,36.45
2023-01-08T08:44:18.435Z,33.60
2023-01-08T08:46:46.326Z,34.10
2023-01-08T08:49:14.384Z,33.22
2023-01-08T08:51:42.374Z,38.53
2023-01-08T08:54:11.780Z,38.25
2023-01-08T08:56:39.582Z,37.72
2023-01-08T08:59:09.697Z,38.95
2023-01-08T09:01:37.606Z,38.95
2023-01-08T09:04:05.509Z,38.85
2023-01-08T09:06:33.508Z,36.33
2023-01-08T09:09:01.447Z,37.75
2023-01-08T09:11:29.496Z,37.15
2023-01-08T09:13:57.221Z,34.45
2023-01-08T09:16:25.093Z,32.72
2023-01-08T09:18:53.154Z,29.42
2023-01-08T09:21:20.873Z,38.92
2023-01-08T09:23:49.794Z,36.50
2023-01-08T09:26:17.629Z,38.53
2023-01-08T09:28:45.429Z,41.38
2023-01-08T09:31:13.374Z,37.53
2023-01-08T09:33:41.252Z,36.65
2023-01-08T09:36:12.348Z,38.30
2023-01-08T09:38:40.125Z,35.85
2023-01-08T09:41:28.830Z,39.60
2023-01-08T09:43:56.865Z,38.03
2023-01-08T09:46:27.277Z,35.15
2023-01-08T09:49:06.965Z,36.22
2023-01-08T09:51:36.228Z,42.25
2023-01-08T09:54:04.165Z,44.83
2023-01-08T09:56:32.069Z,45.90
2023-01-08T09:59:00.595Z,50.60
2023-01-08T10:01:35.444Z,51.00
2023-01-08T10:04:21.912Z,45.70
2023-01-08T10:06:53.775Z,41.85
2023-01-08T10:09:25.443Z,44.85
2023-01-08T10:11:53.187Z,39.90
2023-01-08T10:14:22.662Z,42.70
2023-01-08T10:17:02.196Z,39.30
2023-01-08T10:19:30.028Z,81.47
2023-01-08T10:21:58.000Z,102.47
2023-01-08T10:24:46.168Z,114.57
2023-01-08T10:27:16.683Z,112.35
2023-01-08T10:29:44.581Z,89.80
2023-01-08T10:32:20.159Z,84.88
2023-01-08T10:34:52.384Z,56.35
2023-01-08T10:37:24.375Z,60.85
2023-01-08T10:39:52.648Z,62.33
2023-01-08T10:42:20.820Z,54.78
2023-01-08T10:45:24.016Z,45.70
2023-01-08T10:47:53.622Z,46.55
2023-01-08T10:50:24.292Z,49.25
2023-01-08T10:52:57.234Z,60.55
2023-01-08T10:58:10.266Z,65.85
2023-01-08T11:00:38.349Z,71.10
2023-01-08T11:03:19.598Z,77.88
2023-01-08T11:05:47.948Z,82.30
2023-01-08T11:08:18.280Z,90.55
2023-01-08T11:11:01.985Z,87.18
2023-01-08T11:13:30.005Z,100.88
2023-01-08T11:16:26.030Z,96.20
2023-01-08T11:18:53.936Z,81.72
2023-01-08T11:21:23.832Z,119.82
2023-01-08T11:24:36.627Z,155.77
2023-01-08T11:27:42.410Z,163.25
2023-01-08T11:30:22.227Z,185.30
2023-01-08T11:33:07.457Z,202.85
2023-01-08T11:35:53.894Z,169.93
2023-01-08T11:38:21.807Z,171.25
2023-01-08T11:40:52.357Z,206.93
2023-01-08T11:43:50.808Z,116.97
2023-01-08T11:46:32.738Z,100.40
2023-01-08T11:49:10.193Z,119.30
2023-01-08T11:51:54.613Z,151.95
2023-01-08T11:54:43.072Z,111.00
2023-01-08T11:57:32.397Z,121.25
2023-01-08T12:00:15.796Z,119.90
2023-01-08T12:03:03.978Z,111.95
2023-01-08T12:05:36.056Z,109.93
2023-01-08T12:08:06.334Z,113.35
2023-01-08T12:10:46.646Z,108.97
2023-01-08T12:13:33.591Z,99.30
2023-01-08T12:16:39.070Z,99.30
2023-01-08T12:19:09.839Z,166.70
2023-01-08T12:21:58.781Z,202.95
2023-01-08T12:24:51.605Z,185.52
2023-01-08T12:27:55.934Z,112.88
2023-01-08T12:30:52.315Z,78.72
2023-01-08T12:33:40.341Z,92.90
2023-01-08T12:36:14.944Z,104.75
2023-01-08T12:38:45.149Z,106.00
2023-01-08T12:41:19.818Z,116.10
2023-01-08T12:43:58.674Z,140.25
2023-01-08T12:46:28.015Z,134.18
2023-01-08T12:48:57.508Z,140.93
2023-01-08T12:51:30.747Z,156.55
2023-01-08T12:54:15.773Z,166.90
2023-01-08T12:57:10.707Z,164.75
2023-01-08T12:59:45.928Z,168.50
2023-01-08T13:02:28.277Z,162.32
2023-01-08T13:04:56.394Z,170.55
2023-01-08T13:07:28.963Z,172.48
2023-01-08T13:10:22.844Z,162.35
2023-01-08T13:12:51.517Z,161.02
2023-01-08T13:15:22.561Z,165.43
2023-01-08T13:17:50.760Z,174.77
2023-01-08T13:20:31.841Z,179.60
2023-01-08T13:23:04.332Z,174.15
2023-01-08T13:25:54.471Z,173.98
2023-01-08T13:28:25.265Z,164.70
2023-01-08T13:30:55.958Z,179.90
2023-01-08T13:33:36.309Z,203.93
2023-01-08T13:36:19.214Z,232.52
2023-01-08T13:38:47.533Z,218.38
2023-01-08T13:41:32.331Z,197.05
2023-01-08T13:44:05.677Z,306.73
2023-01-08T13:46:42.654Z,423.05
2023-01-08T13:49:35.029Z,457.20
2023-01-08T13:52:02.953Z,445.73
2023-01-08T13:54:32.593Z,472.35
2023-01-08T13:57:20.917Z,487.60
2023-01-08T13:59:56.248Z,479.38
2023-01-08T14:02:32.368Z,478.20
2023-01-08T14:05:01.857Z,490.23
2023-01-08T14:07:31.045Z,488.50
2023-01-08T14:10:09.694Z,493.00
2023-01-08T14:12:37.507Z,500.75
2023-01-08T14:15:10.252Z,493.15
2023-01-08T14:20:10.622Z,481.98
2023-01-08T14:22:38.491Z,530.60
2023-01-08T14:25:07.144Z,549.22
2023-01-08T14:27:35.599Z,531.30
2023-01-08T14:30:14.172Z,532.60
2023-01-08T14:33:00.640Z,522.55
2023-01-08T14:35:33.700Z,527.78
2023-01-08T14:38:02.427Z,545.85
2023-01-08T14:40:36.098Z,572.22
2023-01-08T14:43:22.872Z,579.63
2023-01-08T14:45:52.291Z,570.90
2023-01-08T14:48:33.609Z,582.17
2023-01-08T14:51:06.266Z,562.80
2023-01-08T14:53:40.998Z,465.98
2023-01-08T14:56:12.048Z,448.33
2023-01-08T14:58:40.760Z,442.17
2023-01-08T15:01:14.984Z,386.63
2023-01-08T15:03:44.249Z,427.65
2023-01-08T15:06:12.346Z,452.35
2023-01-08T15:08:44.143Z,449.48
2023-01-08T15:11:25.033Z,440.27
2023-01-08T15:13:53.669Z,388.92
2023-01-08T15:16:32.758Z,375.17
2023-01-08T15:19:13.695Z,366.33
2023-01-08T15:21:51.091Z,344.63
2023-01-08T15:24:29.846Z,295.52
2023-01-08T15:26:58.032Z,300.25
2023-01-08T15:29:33.593Z,209.85
2023-01-08T15:32:12.570Z,210.75
2023-01-08T15:34:40.783Z,246.23
2023-01-08T15:37:08.574Z,230.73
2023-01-08T15:39:36.381Z,234.38
2023-01-08T15:42:49.683Z,236.40
2023-01-08T15:45:40.215Z,249.38
2023-01-08T15:48:08.548Z,276.52
2023-01-08T15:50:40.347Z,283.10
2023-01-08T15:53:22.614Z,312.47
2023-01-08T15:55:51.042Z,295.40
2023-01-08T15:58:18.833Z,287.88
2023-01-08T16:00:46.991Z,287.20
2023-01-08T16:03:15.169Z,281.90
2023-01-08T16:05:42.977Z,282.42
2023-01-08T16:08:11.356Z,268.17
2023-01-08T16:10:39.257Z,250.18
2023-01-08T16:13:07.183Z,244.07
2023-01-08T16:15:35.293Z,246.60
2023-01-08T16:18:04.389Z,229.23
2023-01-08T16:20:32.162Z,238.95
2023-01-08T16:23:00.124Z,231.90
2023-01-08T16:25:46.568Z,226.40
2023-01-08T16:28:14.415Z,228.00
2023-01-08T16:30:43.055Z,224.52
2023-01-08T16:33:10.955Z,217.77
2023-01-08T16:35:38.889Z,214.50
2023-01-08T16:38:06.900Z,191.38
2023-01-08T16:41:00.145Z,168.27
2023-01-08T16:45:56.190Z,107.80
2023-01-08T16:48:24.115Z,176.45
2023-01-08T16:50:52.016Z,242.10
2023-01-08T16:53:22.103Z,246.00
2023-01-08T16:55:50.059Z,238.18
2023-01-08T16:58:17.946Z,228.05
2023-01-08T17:00:47.912Z,226.75
2023-01-08T17:03:15.896Z,218.77
2023-01-08T17:06:21.093Z,225.20
2023-01-08T17:08:49.130Z,230.18
2023-01-08T17:11:18.580Z,222.13
2023-01-08T17:13:46.559Z,216.73
2023-01-08T17:16:15.636Z,207.57
2023-01-08T17:18:43.704Z,183.60
2023-01-08T17:21:12.397Z,190.18
2023-01-08T17:23:40.549Z,190.50
2023-01-08T17:26:27.052Z,193.55
2023-01-08T17:28:55.392Z,177.77
2023-01-08T17:31:23.365Z,157.95
2023-01-08T17:33:51.483Z,123.28
2023-01-08T17:36:26.535Z,112.88
2023-01-08T17:38:54.811Z,102.13
2023-01-08T17:41:41.430Z,90.65
2023-01-08T17:44:10.192Z,85.22
2023-01-08T17:46:42.535Z,84.47
2023-01-08T17:49:11.694Z,77.35
2023-01-08T17:51:41.349Z,81.82
2023-01-08T17:54:13.361Z,88.05
2023-01-08T17:56:41.370Z,98.60
2023-01-08T17:59:10.403Z,143.93
2023-01-08T18:01:38.370Z,106.63
2023-01-08T18:04:06.365Z,116.25
2023-01-08T18:06:34.695Z,104.70
2023-01-08T18:09:02.784Z,120.30
2023-01-08T18:11:30.683Z,94.57
2023-01-08T18:13:59.315Z,100.00
2023-01-08T18:16:27.415Z,40.08
2023-01-08T18:18:57.151Z,69.75
2023-01-08T18:21:26.541Z,54.05
2023-01-08T18:23:54.425Z,51.45
2023-01-08T18:26:22.493Z,93.15
2023-01-08T18:28:51.605Z,82.82
2023-01-08T18:31:21.392Z,98.97
2023-01-08T18:33:52.683Z,93.60
2023-01-08T18:36:20.702Z,89.43
2023-01-08T18:38:48.886Z,97.03
2023-01-08T18:41:36.734Z,94.75
2023-01-08T18:44:06.169Z,87.60
2023-01-08T18:46:34.221Z,86.47
2023-01-08T18:49:02.199Z,93.40
2023-01-08T18:51:29.976Z,92.65
2023-01-08T18:53:57.875Z,95.60
2023-01-08T18:56:30.806Z,96.50
2023-01-08T18:58:58.653Z,100.82
2023-01-08T19:01:26.906Z,112.88
2023-01-08T19:03:56.131Z,122.18
2023-01-08T19:06:24.081Z,124.70
2023-01-08T19:08:52.055Z,121.95
2023-01-08T19:11:23.627Z,117.40
2023-01-08T19:13:57.039Z,123.55
2023-01-08T19:16:25.532Z,132.93
2023-01-08T19:18:53.613Z,147.60
2023-01-08T19:21:22.064Z,134.90
2023-01-08T19:23:49.901Z,130.57
2023-01-08T19:26:17.858Z,124.82
2023-01-08T19:28:45.735Z,116.93
2023-01-08T19:31:14.893Z,113.78
2023-01-08T19:33:43.049Z,81.50
2023-01-08T19:36:16.201Z,106.30
2023-01-08T19:38:44.321Z,119.25
2023-01-08T19:41:30.822Z,123.82
2023-01-08T19:43:58.965Z,121.35
2023-01-08T19:46:27.111Z,103.72
2023-01-08T19:48:59.217Z,112.63
2023-01-08T19:51:27.364Z,97.18
2023-01-08T19:53:56.270Z,106.25
2023-01-08T19:56:24.051Z,91.50
2023-01-08T19:58:51.781Z,86.45
2023-01-08T20:01:21.590Z,103.68
2023-01-08T20:03:49.565Z,102.75
2023-01-08T20:06:20.168Z,118.40
2023-01-08T20:08:49.213Z,113.97
2023-01-08T20:11:17.361Z,117.35
2023-01-08T20:13:45.140Z,117.78
2023-01-08T20:16:31.636Z,103.63
2023-01-08T20:19:02.703Z,114.13
2023-01-08T20:21:31.285Z,102.65
2023-01-08T20:24:04.291Z,107.70
2023-01-08T20:26:32.454Z,108.22
2023-01-08T20:29:00.344Z,84.88
2023-01-08T20:31:33.191Z,97.75
2023-01-08T20:36:30.681Z,89.53
2023-01-08T20:39:00.456Z,92.75
2023-01-08T20:41:28.369Z,80.80
2023-01-08T20:43:59.230Z,91.88
2023-01-08T20:46:31.153Z,89.65
2023-01-08T20:49:01.529Z,98.90
2023-01-08T20:51:57.841Z,102.85
2023-01-08T20:54:26.793Z,107.63
2023-01-08T20:56:56.578Z,107.90
2023-01-08T20:59:24.668Z,113.90
2023-01-08T21:01:52.661Z,107.90
2023-01-08T21:04:20.781Z,110.40
2023-01-08T21:06:48.609Z,105.93
2023-01-08T21:09:17.975Z,104.18
2023-01-08T21:11:45.815Z,107.82
2023-01-08T21:14:13.625Z,106.43
2023-01-08T21:16:41.526Z,105.82
2023-01-08T21:19:10.871Z,105.05
2023-01-08T21:21:40.666Z,102.80
2023-01-08T21:24:46.228Z,100.90
2023-01-08T21:27:13.994Z,94.70
2023-01-08T21:29:41.657Z,99.40
2023-01-08T21:32:09.523Z,95.07
2023-01-08T21:34:37.407Z,99.32
2023-01-08T21:37:05.380Z,93.97
2023-01-08T21:39:33.315Z,97.57
2023-01-08T21:42:19.285Z,91.60
2023-01-08T21:45:05.366Z,94.35
2023-01-08T21:47:33.157Z,94.10
2023-01-08T21:50:01.043Z,94.78
2023-01-08T21:52:47.265Z,92.72
2023-01-08T21:55:17.791Z,97.07
2023-01-08T21:57:45.694Z,102.65
2023-01-08T22:00:14.348Z,106.80
2023-01-08T22:02:42.189Z,104.45
2023-01-08T22:05:10.094Z,103.07
2023-01-08T22:07:37.874Z,104.82
2023-01-08T22:10:06.600Z,101.68
2023-01-08T22:12:34.331Z,109.97
2023-01-08T22:15:02.222Z,115.15
2023-01-08T22:17:30.767Z,125.30
2023-01-08T22:19:58.650Z,130.32
2023-01-08T22:22:26.735Z,117.45
2023-01-08T22:24:55.027Z,117.75
2023-01-08T22:27:22.904Z,109.63
2023-01-08T22:29:50.768Z,115.30
2023-01-08T22:32:18.555Z,114.75
2023-01-08T22:34:46.452Z,76.65
2023-01-08T22:37:14.456Z,87.00
2023-01-08T22:39:42.274Z,87.40
2023-01-08T22:42:10.032Z,98.47
2023-01-08T22:44:37.853Z,99.38
2023-01-08T22:47:06.495Z,94.72
2023-01-08T22:49:34.301Z,78.20
2023-01-08T22:52:02.142Z,67.45
2023-01-08T22:54:29.939Z,64.22
2023-01-08T22:56:57.748Z,67.75
2023-01-08T22:59:25.537Z,46.65
2023-01-08T23:01:53.340Z,60.35
2023-01-08T23:04:21.150Z,34.08
2023-01-08T23:06:49.001Z,32.67
2023-01-08T23:09:16.943Z,22.00
2023-01-08T23:12:03.155Z,27.92
2023-01-08T23:14:31.114Z,24.35
2023-01-08T23:16:58.954Z,26.00
2023-01-08T23:19:26.781Z,29.17
2023-01-08T23:21:54.662Z,23.85
2023-01-08T23:24:22.439Z,25.35
2023-01-08T23:26:50.323Z,24.55
2023-01-08T23:29:18.107Z,19.65
2023-01-08T23:31:45.928Z,18.75
2023-01-08T23:34:13.810Z,22.67
2023-01-08T23:36:43.304Z,21.52
2023-01-08T23:39:11.021Z,25.02
2023-01-08T23:41:38.879Z,12.60
2023-01-08T23:44:13.069Z,20.92
2023-01-08T23:46:40.973Z,17.55
2023-01-08T23:49:08.974Z,14.20
2023-01-08T23:51:37.152Z,18.65
2023-01-08T23:54:05.134Z,18.00
2023-01-08T23:56:33.074Z,16.60
2023-01-08T23:59:00.939Z,18.70
